Time;durP1;ratioP1;P1;durP2;ratioP2;P2;SDS_P1;SDS_P2;PMS_P1;PMS_P2;Temp;Humidity;BMP_temperature;BMP_pressure;BME280_temperature;BME280_humidity;BME280_pressure;Samples;Min_cycle;Max_cycle;Signal;HPM_P1;HPM_P2
2023/12/16 05:30:18;;;;;;;0.10;0.10;;;4.70;83.20;;;;;;5903296;23;20019;-77
2023/12/16 05:32:44;;;;;;;0.20;0.20;;;4.60;83.20;;;;;;4913591;29;20031;-78
2023/12/16 05:35:10;;;;;;;0.10;0.10;;;4.60;83.40;;;;;;4930256;29;20028;-78
2023/12/16 05:37:35;;;;;;;0.10;0.10;;;4.60;83.40;;;;;;4921153;29;20083;-78
2023/12/16 05:40:01;;;;;;;0.20;0.20;;;4.60;83.70;;;;;;4918760;29;20024;-78
2023/12/16 05:42:26;;;;;;;0.10;0.10;;;4.60;83.50;;;;;;4937374;29;20028;-78
2023/12/16 05:44:52;;;;;;;0.13;0.13;;;4.50;83.40;;;;;;4925289;29;20024;-78
2023/12/16 05:47:18;;;;;;;0.20;0.20;;;4.50;83.90;;;;;;4899638;29;20639;-78
2023/12/16 05:49:43;;;;;;;0.10;0.10;;;4.50;83.90;;;;;;4918122;29;20032;-78
2023/12/16 05:52:09;;;;;;;0.10;0.10;;;4.60;83.60;;;;;;4917157;29;20020;-78
2023/12/16 05:54:35;;;;;;;0.10;0.10;;;4.60;83.40;;;;;;4901642;29;20147;-77
2023/12/16 05:57:01;;;;;;;0.10;0.10;;;4.60;83.20;;;;;;4900637;29;20068;-78
2023/12/16 05:59:27;;;;;;;0.10;0.10;;;4.50;83.10;;;;;;4899783;29;20071;-78
2023/12/16 06:01:55;;;;;;;0.20;0.20;;;4.50;83.00;;;;;;4911957;29;20088;-78
2023/12/16 06:04:22;;;;;;;0.20;0.20;;;4.50;83.10;;;;;;4918500;29;20043;-77
2023/12/16 06:06:48;;;;;;;0.10;0.10;;;4.50;83.30;;;;;;4925297;29;20028;-78
2023/12/16 06:09:14;;;;;;;0.20;0.20;;;4.40;82.90;;;;;;4918233;29;20047;-77
2023/12/16 06:11:40;;;;;;;0.10;0.10;;;4.40;83.20;;;;;;4917606;29;20024;-78
2023/12/16 06:14:05;;;;;;;0.17;0.17;;;4.40;83.30;;;;;;4916932;29;20032;-78
2023/12/16 06:16:31;;;;;;;0.10;0.10;;;4.40;83.50;;;;;;4918209;29;20047;-77
2023/12/16 06:18:57;;;;;;;0.10;0.10;;;4.50;83.90;;;;;;4918166;29;20064;-78
2023/12/16 06:21:23;;;;;;;0.10;0.10;;;4.40;83.90;;;;;;4913407;29;20109;-78
2023/12/16 06:23:48;;;;;;;0.13;0.13;;;4.40;83.50;;;;;;4899103;29;20060;-78
2023/12/16 06:26:14;;;;;;;0.10;0.10;;;4.40;83.60;;;;;;4899105;29;20037;-78
2023/12/16 06:28:40;;;;;;;0.10;0.10;;;4.40;83.30;;;;;;4898802;29;20591;-78
2023/12/16 06:31:05;;;;;;;0.13;0.13;;;4.40;83.80;;;;;;4898919;29;20107;-78
2023/12/16 06:33:31;;;;;;;0.10;0.10;;;4.40;84.00;;;;;;4905866;29;20032;-78
2023/12/16 06:35:57;;;;;;;0.10;0.10;;;4.40;84.30;;;;;;4899459;29;20032;-78
2023/12/16 06:38:22;;;;;;;0.10;0.10;;;4.40;84.20;;;;;;4898813;29;20032;-78
2023/12/16 06:40:48;;;;;;;0.10;0.10;;;4.40;84.00;;;;;;4919106;29;20023;-77
2023/12/16 06:43:13;;;;;;;0.10;0.10;;;4.30;84.20;;;;;;4921899;29;20040;-78
2023/12/16 06:45:39;;;;;;;0.10;0.10;;;4.30;84.20;;;;;;4920153;29;20036;-78
2023/12/16 06:48:05;;;;;;;0.20;0.20;;;4.30;83.80;;;;;;4904240;29;20035;-76
2023/12/16 06:50:30;;;;;;;0.10;0.10;;;4.40;83.90;;;;;;4900505;29;20028;-76
2023/12/16 06:52:56;;;;;;;0.10;0.10;;;4.40;83.60;;;;;;4897488;29;20036;-78
2023/12/16 06:55:22;;;;;;;0.10;0.10;;;4.40;83.40;;;;;;4899571;29;20456;-77
2023/12/16 06:57:47;;;;;;;0.20;0.20;;;4.40;83.70;;;;;;4909524;29;20032;-76
2023/12/16 07:00:13;;;;;;;0.20;0.20;;;4.40;83.70;;;;;;4898685;29;20032;-76
2023/12/16 07:02:42;;;;;;;0.10;0.10;;;4.30;83.60;;;;;;4881966;29;20071;-76
2023/12/16 07:05:10;;;;;;;0.20;0.20;;;4.30;83.50;;;;;;4900559;29;20032;-76
2023/12/16 07:07:36;;;;;;;0.10;0.10;;;4.40;83.70;;;;;;4917342;29;20115;-77
2023/12/16 07:10:02;;;;;;;0.10;0.10;;;4.40;83.70;;;;;;4896153;29;20066;-75
2023/12/16 07:12:28;;;;;;;0.20;0.20;;;4.40;83.90;;;;;;4881735;29;20029;-75
2023/12/16 07:14:53;;;;;;;0.15;0.15;;;4.40;83.50;;;;;;4898531;29;20134;-74
2023/12/16 07:17:19;;;;;;;0.10;0.10;;;4.40;83.50;;;;;;4898582;29;20033;-76
2023/12/16 07:19:45;;;;;;;0.10;0.10;;;4.30;83.00;;;;;;4898288;29;20029;-77
2023/12/16 07:22:15;;;;;;;0.10;0.10;;;4.30;83.40;;;;;;4881931;29;20046;-75
2023/12/16 07:24:41;;;;;;;0.10;0.10;;;4.30;83.20;;;;;;4888348;29;20039;-77
2023/12/16 07:27:06;;;;;;;0.10;0.10;;;4.20;83.50;;;;;;4920807;29;20032;-77
2023/12/16 07:29:35;;;;;;;0.10;0.10;;;4.30;83.90;;;;;;4921258;29;20028;-77
2023/12/16 07:32:02;;;;;;;0.10;0.10;;;4.30;84.00;;;;;;4919528;29;20041;-77
2023/12/16 07:34:28;;;;;;;0.10;0.10;;;4.30;83.70;;;;;;4904047;29;20060;-77
2023/12/16 07:36:54;;;;;;;0.13;0.13;;;4.30;83.60;;;;;;4885562;29;20040;-77
2023/12/16 07:39:19;;;;;;;0.10;0.10;;;4.30;83.70;;;;;;4885021;29;20029;-77
2023/12/16 07:41:45;;;;;;;0.10;0.10;;;4.20;83.70;;;;;;4930300;29;20091;-76
2023/12/16 07:44:11;;;;;;;0.10;0.10;;;4.20;83.90;;;;;;4919971;29;20877;-77
2023/12/16 07:46:40;;;;;;;0.10;0.10;;;4.30;83.80;;;;;;4929003;29;20032;-76
2023/12/16 07:49:06;;;;;;;0.10;0.10;;;4.20;83.60;;;;;;4903589;29;20677;-78
2023/12/16 07:51:32;;;;;;;0.10;0.10;;;4.30;83.30;;;;;;4918249;29;20032;-78
2023/12/16 07:53:57;;;;;;;0.10;0.10;;;4.20;82.70;;;;;;4919806;29;20445;-77
2023/12/16 07:56:26;;;;;;;0.10;0.10;;;4.10;82.90;;;;;;4919368;29;20044;-78
2023/12/16 07:58:52;;;;;;;0.10;0.10;;;4.10;83.20;;;;;;4900827;29;20063;-77
2023/12/16 08:01:18;;;;;;;0.10;0.10;;;4.10;83.60;;;;;;4899851;29;20040;-77
2023/12/16 08:03:45;;;;;;;0.10;0.10;;;4.10;83.80;;;;;;4907685;29;20285;-78
2023/12/16 08:06:11;;;;;;;0.20;0.20;;;4.20;83.70;;;;;;4900058;29;20067;-78
2023/12/16 08:08:41;;;;;;;0.10;0.10;;;4.20;83.50;;;;;;4899859;29;20492;-78
2023/12/16 08:11:08;;;;;;;0.20;0.20;;;4.20;83.60;;;;;;4901535;29;20017;-78
2023/12/16 08:13:34;;;;;;;0.20;0.20;;;4.20;83.50;;;;;;4918382;29;20111;-78
2023/12/16 08:16:00;;;;;;;0.20;0.20;;;4.10;83.70;;;;;;4910572;29;20130;-78
2023/12/16 08:18:27;;;;;;;0.10;0.10;;;4.20;83.80;;;;;;4911997;29;20024;-78
2023/12/16 08:20:53;;;;;;;0.10;0.10;;;4.20;83.90;;;;;;4920563;29;20028;-78
2023/12/16 08:23:19;;;;;;;0.20;0.20;;;4.20;83.90;;;;;;4900667;29;20052;-78
2023/12/16 08:25:45;;;;;;;0.10;0.10;;;4.30;84.00;;;;;;4901411;29;20048;-77
2023/12/16 08:28:11;;;;;;;0.10;0.10;;;4.30;83.90;;;;;;4901424;29;20495;-78
2023/12/16 08:30:37;;;;;;;0.20;0.20;;;4.30;84.00;;;;;;4884736;29;20045;-78
2023/12/16 08:33:04;;;;;;;0.10;0.10;;;4.40;84.10;;;;;;4918640;29;20032;-77
2023/12/16 08:35:29;;;;;;;0.20;0.20;;;4.40;83.90;;;;;;4917142;29;20040;-77
2023/12/16 08:37:56;;;;;;;0.20;0.20;;;4.50;83.50;;;;;;4919739;29;20072;-77
2023/12/16 08:40:22;;;;;;;0.20;0.20;;;4.40;83.50;;;;;;4922800;29;20040;-77
2023/12/16 08:42:48;;;;;;;0.20;0.20;;;4.30;83.80;;;;;;4937474;29;20028;-77
2023/12/16 08:45:14;;;;;;;0.20;0.20;;;4.40;84.30;;;;;;4937510;29;20039;-78
2023/12/16 08:47:40;;;;;;;0.20;0.20;;;4.40;84.10;;;;;;4934549;29;20023;-79
2023/12/16 08:50:07;;;;;;;0.15;0.15;;;4.50;84.10;;;;;;4905258;29;20093;-77
2023/12/16 08:52:36;;;;;;;0.10;0.10;;;4.60;84.30;;;;;;4909916;29;20033;-77
2023/12/16 08:55:04;;;;;;;0.10;0.10;;;4.60;83.80;;;;;;4909907;29;20024;-77
2023/12/16 08:57:32;;;;;;;0.13;0.13;;;4.60;83.70;;;;;;4924045;29;20052;-78
2023/12/16 09:00:01;;;;;;;0.10;0.10;;;4.60;84.20;;;;;;4909280;29;20040;-77
2023/12/16 09:02:27;;;;;;;0.10;0.10;;;4.70;84.40;;;;;;4908528;29;20436;-78
2023/12/16 09:04:56;;;;;;;0.10;0.10;;;4.80;84.40;;;;;;4910248;29;20039;-78
2023/12/16 09:07:21;;;;;;;0.10;0.10;;;4.80;84.40;;;;;;4908114;29;20026;-77
2023/12/16 09:09:47;;;;;;;0.20;0.20;;;4.90;84.30;;;;;;4907994;29;20143;-78
2023/12/16 09:12:13;;;;;;;0.20;0.20;;;5.00;84.40;;;;;;4916577;29;20027;-78
2023/12/16 09:14:38;;;;;;;0.20;0.20;;;5.00;84.20;;;;;;4923875;29;20036;-78
2023/12/16 09:17:04;;;;;;;0.13;0.13;;;5.00;84.20;;;;;;4928147;29;20023;-78
2023/12/16 09:19:30;;;;;;;0.10;0.10;;;5.10;84.20;;;;;;4912922;29;20033;-78
2023/12/16 09:21:56;;;;;;;0.10;0.10;;;5.20;84.10;;;;;;4929575;29;20035;-78
2023/12/16 09:24:22;;;;;;;0.20;0.20;;;5.20;84.00;;;;;;4938013;29;20549;-82
2023/12/16 09:26:47;;;;;;;0.20;0.20;;;5.30;83.90;;;;;;4938421;29;20087;-82
2023/12/16 09:29:13;;;;;;;0.20;0.20;;;5.30;83.90;;;;;;4917123;29;20028;-79
2023/12/16 09:31:40;;;;;;;0.10;0.10;;;5.40;83.90;;;;;;4921538;29;20052;-80
2023/12/16 09:34:05;;;;;;;0.10;0.10;;;5.40;83.80;;;;;;4912169;29;20068;-79
2023/12/16 09:36:31;;;;;;;0.10;0.10;;;5.50;83.70;;;;;;4909624;29;20089;-79
2023/12/16 09:38:57;;;;;;;0.10;0.10;;;5.50;83.50;;;;;;4915363;29;20047;-79
2023/12/16 09:41:38;;;;;;;0.10;0.10;;;5.60;83.60;;;;;;4917583;29;20028;-80
2023/12/16 09:44:05;;;;;;;0.20;0.20;;;5.60;83.40;;;;;;4918625;29;20411;-79
2023/12/16 09:46:32;;;;;;;0.10;0.10;;;5.60;83.10;;;;;;4919073;29;20028;-79
2023/12/16 09:48:59;;;;;;;0.13;0.13;;;5.70;83.30;;;;;;4913028;29;20024;-79
2023/12/16 09:51:26;;;;;;;0.17;0.17;;;5.70;83.20;;;;;;4912428;29;20032;-79
2023/12/16 09:53:52;;;;;;;0.20;0.20;;;5.80;83.30;;;;;;4916723;29;20032;-79
2023/12/16 09:56:19;;;;;;;0.10;0.10;;;5.90;83.10;;;;;;4915745;29;20383;-79
2023/12/16 09:58:46;;;;;;;0.20;0.20;;;6.00;82.90;;;;;;4898303;29;20107;-80
2023/12/16 10:01:12;;;;;;;0.10;0.10;;;6.00;82.80;;;;;;4917283;29;20063;-79
2023/12/16 10:03:39;;;;;;;0.15;0.15;;;6.10;82.70;;;;;;4916645;29;20034;-79
2023/12/16 10:06:09;;;;;;;0.10;0.10;;;6.10;82.70;;;;;;4919577;29;20083;-80
2023/12/16 10:08:35;;;;;;;0.20;0.20;;;6.20;82.50;;;;;;4910175;29;20461;-79
2023/12/16 10:11:05;;;;;;;0.20;0.20;;;6.20;82.60;;;;;;4905240;29;20518;-79
2023/12/16 10:13:32;;;;;;;0.10;0.10;;;6.30;82.70;;;;;;4901461;29;20024;-80
2023/12/16 10:16:01;;;;;;;0.10;0.10;;;6.30;82.60;;;;;;4912778;29;20459;-88
2023/12/16 10:18:27;;;;;;;0.10;0.10;;;6.40;82.40;;;;;;4899081;29;20839;-83
2023/12/16 10:20:55;;;;;;;0.10;0.10;;;6.40;82.20;;;;;;4913990;29;20039;-79
2023/12/16 10:23:23;;;;;;;0.10;0.10;;;6.50;82.60;;;;;;4912325;29;20024;-81
2023/12/16 10:25:49;;;;;;;0.10;0.10;;;6.50;82.20;;;;;;4929128;29;20024;-80
2023/12/16 10:28:14;;;;;;;0.10;0.10;;;6.60;82.00;;;;;;4920583;29;20096;-80
2023/12/16 10:30:41;;;;;;;0.10;0.10;;;6.60;82.00;;;;;;4916855;29;20044;-81
2023/12/16 10:33:16;;;;;;;0.10;0.10;;;6.70;82.00;;;;;;4884703;29;20122;-88
2023/12/16 10:35:42;;;;;;;0.15;0.15;;;6.70;82.00;;;;;;4914339;29;20554;-78
2023/12/16 10:38:10;;;;;;;0.10;0.10;;;6.70;82.10;;;;;;4880213;29;20040;-78
2023/12/16 10:40:37;;;;;;;0.10;0.10;;;6.80;82.10;;;;;;4880736;29;20670;-78
2023/12/16 10:43:03;;;;;;;0.10;0.10;;;6.80;82.00;;;;;;4878586;29;20045;-78
2023/12/16 10:45:29;;;;;;;0.13;0.13;;;6.90;81.70;;;;;;4881129;29;20036;-79
2023/12/16 10:47:57;;;;;;;0.10;0.10;;;7.00;81.60;;;;;;4901132;29;20036;-78
2023/12/16 10:50:25;;;;;;;0.10;0.10;;;7.00;81.60;;;;;;4901473;29;20020;-78
2023/12/16 10:52:56;;;;;;;0.10;0.10;;;7.10;81.30;;;;;;4879000;29;20564;-78
2023/12/16 10:55:44;;;;;;;0.13;0.13;;;7.10;81.20;;;;;;4882718;29;20044;-78
2023/12/16 10:58:29;;;;;;;0.10;0.10;;;7.10;81.50;;;;;;4908417;29;20036;-78
2023/12/16 11:01:05;;;;;;;0.10;0.10;;;7.20;81.50;;;;;;4879235;29;20115;-78
2023/12/16 11:03:37;;;;;;;0.10;0.10;;;7.20;81.00;;;;;;4899096;29;20033;-78
2023/12/16 11:06:07;;;;;;;0.10;0.10;;;7.30;80.80;;;;;;4894989;29;20039;-78
2023/12/16 11:08:36;;;;;;;0.15;0.15;;;7.40;80.40;;;;;;4881837;29;20043;-78
2023/12/16 11:11:03;;;;;;;0.10;0.10;;;7.50;80.40;;;;;;4889164;29;20024;-80
2023/12/16 11:13:30;;;;;;;0.10;0.10;;;7.50;80.30;;;;;;4894082;29;20441;-79
2023/12/16 11:16:02;;;;;;;0.10;0.10;;;7.60;80.20;;;;;;4881647;29;20029;-81
2023/12/16 11:18:30;;;;;;;0.10;0.10;;;7.60;80.10;;;;;;4874055;29;20036;-77
2023/12/16 11:21:04;;;;;;;0.17;0.17;;;7.70;79.90;;;;;;4902598;29;20051;-83
2023/12/16 11:23:30;;;;;;;0.10;0.10;;;7.70;79.90;;;;;;4906798;29;20028;-81
2023/12/16 11:26:00;;;;;;;0.10;0.10;;;7.70;79.60;;;;;;4907420;29;20031;-80
2023/12/16 11:28:27;;;;;;;0.10;0.10;;;7.80;79.10;;;;;;4908267;29;20036;-84
2023/12/16 11:30:56;;;;;;;0.10;0.10;;;7.80;79.00;;;;;;4901502;29;20091;-78
2023/12/16 11:33:22;;;;;;;0.10;0.10;;;7.80;79.30;;;;;;4918013;29;20033;-78
2023/12/16 11:35:50;;;;;;;0.13;0.13;;;7.80;79.10;;;;;;4895706;29;20032;-80
2023/12/16 11:38:35;;;;;;;0.10;0.10;;;8.00;79.20;;;;;;4886861;29;20052;-81
2023/12/16 11:41:02;;;;;;;0.10;0.10;;;8.00;78.40;;;;;;4922946;29;20112;-76
2023/12/16 11:43:52;;;;;;;0.10;0.10;;;8.10;78.00;;;;;;4904506;29;20041;-76
2023/12/16 11:46:35;;;;;;;0.10;0.10;;;8.20;77.40;;;;;;4889010;29;20521;-75
2023/12/16 11:49:07;;;;;;;0.10;0.10;;;8.20;77.50;;;;;;4919956;29;20478;-77
2023/12/16 11:51:34;;;;;;;0.10;0.10;;;8.20;77.40;;;;;;4896777;29;20064;-78
2023/12/16 11:54:01;;;;;;;0.20;0.20;;;8.30;77.00;;;;;;4898481;29;20498;-80
2023/12/16 11:56:27;;;;;;;0.10;0.10;;;8.30;77.30;;;;;;4898429;29;20059;-78
2023/12/16 11:58:57;;;;;;;0.10;0.10;;;8.40;77.20;;;;;;4899329;29;20041;-77
2023/12/16 12:01:25;;;;;;;0.10;0.10;;;8.40;77.50;;;;;;4882549;29;20488;-81
2023/12/16 12:03:51;;;;;;;0.10;0.10;;;8.50;77.40;;;;;;4895417;29;20555;-83
2023/12/16 12:06:21;;;;;;;0.10;0.10;;;8.50;77.00;;;;;;4918527;29;20028;-77
2023/12/16 12:08:47;;;;;;;0.10;0.10;;;8.60;76.90;;;;;;4901520;29;20569;-80
2023/12/16 12:11:20;;;;;;;0.10;0.10;;;8.60;77.10;;;;;;4917300;29;20119;-86
2023/12/16 12:13:51;;;;;;;0.10;0.10;;;8.60;76.30;;;;;;4884400;29;20029;-80
2023/12/16 12:16:17;;;;;;;0.10;0.10;;;8.70;76.40;;;;;;4926658;29;20032;-79
2023/12/16 12:18:46;;;;;;;0.10;0.10;;;8.70;75.70;;;;;;4922138;29;20042;-80
2023/12/16 12:21:12;;;;;;;0.10;0.10;;;8.70;76.00;;;;;;4903085;29;20032;-80
2023/12/16 12:23:40;;;;;;;0.10;0.10;;;8.70;76.40;;;;;;4907792;29;20866;-79
2023/12/16 12:26:06;;;;;;;0.10;0.10;;;8.70;76.00;;;;;;4908782;29;20091;-80
2023/12/16 12:28:32;;;;;;;0.10;0.10;;;8.80;75.40;;;;;;4907512;29;20032;-80
2023/12/16 12:31:08;;;;;;;0.10;0.10;;;8.80;74.80;;;;;;4921152;29;20042;-80
2023/12/16 12:33:34;;;;;;;0.10;0.10;;;8.90;73.90;;;;;;4928234;29;20029;-78
2023/12/16 12:36:01;;;;;;;0.10;0.10;;;9.00;74.00;;;;;;4929303;29;20067;-79
2023/12/16 12:38:32;;;;;;;0.10;0.10;;;9.00;74.40;;;;;;4910680;29;20032;-80
2023/12/16 12:40:58;;;;;;;0.10;0.10;;;9.00;74.00;;;;;;4928805;29;20017;-79
2023/12/16 12:43:31;;;;;;;0.10;0.10;;;9.00;74.20;;;;;;4908627;29;20032;-80
2023/12/16 12:46:13;;;;;;;;;;;9.10;74.00;;;;;;4929867;29;20026;-80
2023/12/16 12:48:49;;;;;;;0.10;0.10;;;9.10;73.90;;;;;;4930715;29;20005;-79
2023/12/16 12:51:15;;;;;;;0.20;0.20;;;9.20;74.00;;;;;;4917155;29;20039;-80
2023/12/16 12:53:40;;;;;;;0.10;0.10;;;9.20;73.90;;;;;;4929982;29;20020;-80
2023/12/16 12:56:07;;;;;;;0.10;0.10;;;9.20;74.00;;;;;;4907515;29;20031;-80
2023/12/16 12:58:33;;;;;;;0.10;0.10;;;9.20;73.30;;;;;;4920911;29;20024;-80
2023/12/16 13:01:04;;;;;;;0.10;0.10;;;9.20;73.00;;;;;;4932269;29;20114;-80
2023/12/16 13:03:31;;;;;;;0.10;0.10;;;9.30;73.90;;;;;;4917235;29;20518;-80
2023/12/16 13:05:58;;;;;;;0.10;0.10;;;9.30;73.70;;;;;;4903283;29;20043;-80
2023/12/16 13:08:24;;;;;;;0.10;0.10;;;9.30;73.90;;;;;;4908043;29;20029;-80
2023/12/16 13:10:51;;;;;;;0.13;0.13;;;9.30;73.60;;;;;;4909588;29;20035;-80
2023/12/16 13:13:18;;;;;;;0.10;0.10;;;9.40;73.70;;;;;;4902017;29;20028;-80
2023/12/16 13:15:43;;;;;;;0.10;0.10;;;9.40;73.30;;;;;;4911716;29;20035;-80
2023/12/16 13:18:09;;;;;;;0.10;0.10;;;9.50;72.40;;;;;;4920517;29;20398;-80
2023/12/16 13:20:35;;;;;;;0.10;0.10;;;9.50;72.00;;;;;;4909956;29;20043;-80
2023/12/16 13:23:01;;;;;;;0.10;0.10;;;9.50;71.70;;;;;;4900115;29;20186;-80
2023/12/16 13:25:27;;;;;;;0.10;0.10;;;9.60;72.10;;;;;;4896293;29;20134;-80
2023/12/16 13:27:52;;;;;;;0.10;0.10;;;9.50;71.70;;;;;;4920096;29;20099;-80
2023/12/16 13:30:18;;;;;;;0.10;0.10;;;9.60;72.20;;;;;;4900115;29;20040;-80
2023/12/16 13:32:44;;;;;;;0.10;0.10;;;9.60;72.10;;;;;;4917539;29;20036;-80
2023/12/16 13:35:09;;;;;;;0.10;0.10;;;9.60;72.60;;;;;;4919866;29;20040;-80
2023/12/16 13:37:35;;;;;;;0.10;0.10;;;9.60;73.00;;;;;;4892016;29;21064;-80
2023/12/16 13:40:05;;;;;;;0.10;0.10;;;9.60;72.60;;;;;;4912856;29;20043;-80
2023/12/16 13:42:31;;;;;;;0.10;0.10;;;9.60;72.20;;;;;;4911443;29;20103;-80
2023/12/16 13:44:57;;;;;;;0.10;0.10;;;9.60;73.20;;;;;;4919963;29;20510;-80
2023/12/16 13:47:22;;;;;;;0.10;0.10;;;9.70;71.90;;;;;;4902887;29;20036;-80
2023/12/16 13:49:48;;;;;;;0.10;0.10;;;9.70;71.90;;;;;;4903311;29;20031;-80
2023/12/16 13:52:14;;;;;;;0.10;0.10;;;9.70;72.00;;;;;;4914402;29;20087;-80
2023/12/16 13:54:40;;;;;;;0.10;0.10;;;9.70;71.90;;;;;;4926428;29;20032;-80
2023/12/16 13:57:08;;;;;;;0.10;0.10;;;9.70;71.80;;;;;;4919604;29;20032;-81
2023/12/16 13:59:34;;;;;;;0.10;0.10;;;9.70;71.40;;;;;;4919992;29;20088;-79
2023/12/16 14:02:00;;;;;;;0.10;0.10;;;9.80;71.70;;;;;;4917589;29;20384;-80
2023/12/16 14:04:26;;;;;;;0.10;0.10;;;9.80;72.10;;;;;;4904211;29;20497;-80
2023/12/16 14:06:51;;;;;;;0.10;0.10;;;9.80;71.70;;;;;;4919757;29;20046;-80
2023/12/16 14:09:17;;;;;;;0.10;0.10;;;9.80;71.60;;;;;;4909251;29;20034;-80
2023/12/16 14:11:44;;;;;;;0.10;0.10;;;9.80;70.50;;;;;;4905297;29;20031;-79
2023/12/16 14:14:10;;;;;;;0.10;0.10;;;9.80;69.70;;;;;;4933393;29;20036;-80
2023/12/16 14:16:36;;;;;;;0.10;0.10;;;9.80;69.60;;;;;;4919144;29;20040;-79
2023/12/16 14:19:01;;;;;;;0.10;0.10;;;9.80;69.90;;;;;;4892921;29;20076;-81
2023/12/16 14:21:27;;;;;;;0.10;0.10;;;9.80;69.50;;;;;;4911573;29;20028;-82
2023/12/16 14:23:53;;;;;;;0.10;0.10;;;9.80;69.60;;;;;;4929297;29;20032;-82
2023/12/16 14:26:19;;;;;;;0.10;0.10;;;9.80;70.40;;;;;;4928933;29;20031;-82
2023/12/16 14:28:45;;;;;;;0.13;0.13;;;9.80;69.30;;;;;;4927345;29;20183;-82
2023/12/16 14:31:11;;;;;;;0.10;0.10;;;9.80;69.30;;;;;;4919802;29;20041;-82
2023/12/16 14:33:37;;;;;;;0.10;0.10;;;9.80;70.00;;;;;;4899858;29;20025;-82
2023/12/16 14:36:03;;;;;;;0.10;0.10;;;9.80;70.20;;;;;;4893029;29;20137;-81
2023/12/16 14:38:28;;;;;;;0.10;0.10;;;9.80;70.20;;;;;;4909641;29;20123;-81
2023/12/16 14:40:54;;;;;;;0.10;0.10;;;9.80;69.70;;;;;;4908653;29;20032;-81
2023/12/16 14:43:21;;;;;;;0.10;0.10;;;9.80;69.80;;;;;;4909261;29;20555;-81
2023/12/16 14:45:47;;;;;;;0.10;0.10;;;9.80;69.60;;;;;;4904935;29;20032;-82
2023/12/16 14:48:13;;;;;;;0.10;0.10;;;9.80;69.40;;;;;;4926392;29;20075;-82
2023/12/16 14:50:39;;;;;;;0.10;0.10;;;9.80;68.80;;;;;;4910195;29;20109;-82
2023/12/16 14:53:06;;;;;;;0.10;0.10;;;9.80;69.10;;;;;;4928367;29;20104;-82
2023/12/16 14:55:32;;;;;;;0.10;0.10;;;9.80;69.20;;;;;;4924569;29;20024;-82
2023/12/16 14:57:57;;;;;;;0.10;0.10;;;9.80;69.00;;;;;;4911639;29;20032;-82
2023/12/16 15:00:28;;;;;;;0.10;0.10;;;9.70;69.50;;;;;;4907460;29;20032;-81
2023/12/16 15:02:55;;;;;;;0.10;0.10;;;9.70;69.50;;;;;;4911042;29;20032;-82
2023/12/16 15:05:21;;;;;;;0.10;0.10;;;9.70;69.20;;;;;;4911623;29;20498;-81
2023/12/16 15:07:47;;;;;;;0.13;0.13;;;9.70;70.00;;;;;;4910777;29;20028;-82
2023/12/16 15:10:12;;;;;;;0.10;0.10;;;9.70;69.10;;;;;;4927063;29;20486;-82
2023/12/16 15:12:38;;;;;;;0.20;0.20;;;9.70;69.60;;;;;;4927860;29;20126;-82
2023/12/16 15:15:04;;;;;;;0.10;0.10;;;9.60;69.90;;;;;;4906794;29;20032;-81
2023/12/16 15:17:30;;;;;;;0.10;0.10;;;9.60;71.00;;;;;;4905961;29;20032;-85
2023/12/16 15:19:56;;;;;;;0.10;0.10;;;9.60;70.70;;;;;;4902881;29;20039;-86
2023/12/16 15:22:21;;;;;;;0.10;0.10;;;9.50;70.50;;;;;;4902229;29;20087;-82
2023/12/16 15:24:47;;;;;;;0.10;0.10;;;9.60;69.90;;;;;;4901046;29;20037;-83
2023/12/16 15:27:13;;;;;;;0.10;0.10;;;9.50;70.80;;;;;;4900296;29;20544;-81
2023/12/16 15:29:38;;;;;;;0.10;0.10;;;9.50;70.50;;;;;;4883612;29;20113;-80
2023/12/16 15:32:04;;;;;;;0.10;0.10;;;9.40;69.90;;;;;;4900631;29;20056;-78
2023/12/16 15:34:30;;;;;;;0.10;0.10;;;9.40;69.60;;;;;;4890373;29;20115;-77
2023/12/16 15:36:56;;;;;;;0.10;0.10;;;9.30;71.00;;;;;;4908755;29;20080;-78
2023/12/16 15:39:24;;;;;;;0.10;0.10;;;9.30;70.80;;;;;;4883575;29;20063;-80
2023/12/16 15:41:50;;;;;;;0.10;0.10;;;9.30;71.70;;;;;;4919927;29;20068;-78
2023/12/16 15:44:17;;;;;;;0.10;0.10;;;9.20;72.10;;;;;;4924123;29;20033;-78
2023/12/16 15:46:43;;;;;;;0.10;0.10;;;9.20;71.80;;;;;;4887085;29;20029;-78
2023/12/16 15:49:09;;;;;;;0.10;0.10;;;9.10;72.60;;;;;;4917515;29;20160;-81
2023/12/16 15:51:37;;;;;;;0.10;0.10;;;9.00;72.90;;;;;;4905791;29;20043;-80
2023/12/16 15:54:03;;;;;;;0.10;0.10;;;8.90;73.50;;;;;;4898544;29;20333;-79
2023/12/16 15:56:34;;;;;;;0.10;0.10;;;8.80;73.90;;;;;;4913630;29;20111;-79
2023/12/16 15:59:00;;;;;;;0.10;0.10;;;8.70;74.30;;;;;;4919909;29;20142;-79
2023/12/16 16:01:26;;;;;;;0.10;0.10;;;8.60;74.80;;;;;;4928492;29;20111;-79
2023/12/16 16:03:51;;;;;;;0.10;0.10;;;8.50;75.20;;;;;;4908162;29;20535;-79
2023/12/16 16:06:20;;;;;;;0.10;0.10;;;8.50;75.60;;;;;;4926478;29;20038;-80
2023/12/16 16:08:48;;;;;;;0.20;0.20;;;8.40;75.70;;;;;;4910993;29;20040;-80
2023/12/16 16:11:14;;;;;;;0.10;0.10;;;8.30;75.90;;;;;;4903861;29;20479;-78
2023/12/16 16:13:39;;;;;;;0.10;0.10;;;8.30;75.90;;;;;;4919615;29;20024;-79
2023/12/16 16:16:05;;;;;;;0.10;0.10;;;8.20;75.90;;;;;;4909530;29;20088;-79
2023/12/16 16:18:32;;;;;;;0.10;0.10;;;8.20;76.20;;;;;;4914886;29;20021;-79
2023/12/16 16:20:58;;;;;;;0.10;0.10;;;8.10;76.40;;;;;;4908066;29;20032;-79
2023/12/16 16:23:24;;;;;;;0.10;0.10;;;8.10;76.30;;;;;;4903453;29;20067;-80
2023/12/16 16:25:50;;;;;;;0.10;0.10;;;8.00;76.30;;;;;;4912970;29;20092;-80
2023/12/16 16:28:17;;;;;;;0.10;0.10;;;8.00;76.90;;;;;;4920639;29;20075;-79
2023/12/16 16:30:43;;;;;;;0.10;0.10;;;7.90;77.30;;;;;;4915805;29;20383;-80
2023/12/16 16:33:09;;;;;;;0.10;0.10;;;7.90;77.40;;;;;;4889350;29;20036;-81
2023/12/16 16:35:35;;;;;;;0.10;0.10;;;7.80;77.70;;;;;;4905222;29;20396;-83
2023/12/16 16:38:00;;;;;;;0.10;0.10;;;7.80;78.00;;;;;;4920794;29;20071;-82
2023/12/16 16:40:26;;;;;;;0.10;0.10;;;7.70;77.90;;;;;;4918642;29;20064;-81
2023/12/16 16:42:52;;;;;;;0.10;0.10;;;7.70;77.90;;;;;;4918881;29;20072;-80
2023/12/16 16:45:17;;;;;;;0.10;0.10;;;7.60;78.00;;;;;;4901510;29;20040;-81
2023/12/16 16:47:43;;;;;;;0.10;0.10;;;7.60;78.20;;;;;;4910839;29;20040;-78
2023/12/16 16:50:09;;;;;;;0.20;0.20;;;7.60;78.00;;;;;;4920371;29;20040;-79
2023/12/16 16:52:35;;;;;;;0.10;0.10;;;7.50;78.50;;;;;;4915945;29;20033;-82
2023/12/16 16:55:02;;;;;;;0.10;0.10;;;7.50;78.60;;;;;;4919978;29;20043;-78
2023/12/16 16:57:29;;;;;;;0.10;0.10;;;7.50;78.70;;;;;;4918507;29;20051;-78
2023/12/16 16:59:56;;;;;;;0.10;0.10;;;7.40;79.10;;;;;;4917292;29;20023;-81
2023/12/16 17:02:22;;;;;;;0.10;0.10;;;7.40;79.10;;;;;;4890787;29;20044;-79
2023/12/16 17:04:49;;;;;;;0.10;0.10;;;7.40;79.20;;;;;;4914797;29;20451;-77
2023/12/16 17:07:15;;;;;;;0.10;0.10;;;7.30;79.10;;;;;;4913611;29;20127;-81
2023/12/16 17:09:40;;;;;;;0.10;0.10;;;7.40;79.30;;;;;;4896632;29;20032;-78
2023/12/16 17:12:06;;;;;;;0.10;0.10;;;7.30;79.20;;;;;;4902322;29;20616;-78
2023/12/16 17:14:32;;;;;;;0.10;0.10;;;7.30;79.50;;;;;;4925380;29;20036;-77
2023/12/16 17:16:57;;;;;;;0.10;0.10;;;7.20;79.30;;;;;;4927975;29;20424;-77
2023/12/16 17:19:23;;;;;;;0.10;0.10;;;7.20;79.30;;;;;;4926124;29;20107;-76
2023/12/16 17:21:48;;;;;;;0.10;0.10;;;7.20;79.40;;;;;;4927919;29;20039;-77
2023/12/16 17:24:15;;;;;;;0.10;0.10;;;7.20;79.40;;;;;;4909000;29;20711;-77
2023/12/16 17:26:42;;;;;;;0.10;0.10;;;7.10;79.60;;;;;;4917965;29;20445;-76
2023/12/16 17:29:09;;;;;;;0.13;0.13;;;7.10;79.60;;;;;;4898165;29;20020;-77
2023/12/16 17:31:36;;;;;;;0.10;0.10;;;7.10;79.50;;;;;;4906106;29;20100;-77
2023/12/16 17:34:02;;;;;;;0.10;0.10;;;7.00;79.50;;;;;;4910269;29;20024;-78
2023/12/16 17:36:28;;;;;;;0.17;0.17;;;6.90;79.60;;;;;;4903020;29;20028;-78
2023/12/16 17:38:54;;;;;;;0.10;0.10;;;6.90;79.60;;;;;;4915702;29;20447;-78
2023/12/16 17:41:19;;;;;;;0.10;0.10;;;6.90;79.80;;;;;;4898148;29;20071;-82
2023/12/16 17:43:45;;;;;;;0.10;0.10;;;7.00;80.00;;;;;;4906434;29;20454;-76
2023/12/16 17:46:11;;;;;;;0.10;0.10;;;7.00;80.10;;;;;;4903307;29;20414;-78
2023/12/16 17:48:37;;;;;;;0.13;0.13;;;7.00;80.10;;;;;;4913794;29;20025;-77
2023/12/16 17:51:03;;;;;;;0.10;0.10;;;6.90;80.00;;;;;;4909557;29;20017;-77
2023/12/16 17:53:28;;;;;;;0.10;0.10;;;6.90;80.20;;;;;;4903368;29;20020;-78
2023/12/16 17:55:54;;;;;;;0.10;0.10;;;6.90;80.30;;;;;;4893444;29;20036;-77
2023/12/16 17:58:20;;;;;;;0.10;0.10;;;6.90;80.10;;;;;;4914188;29;20551;-75
2023/12/16 18:00:45;;;;;;;0.10;0.10;;;6.90;80.20;;;;;;4912134;29;20043;-77
2023/12/16 18:03:11;;;;;;;0.10;0.10;;;6.80;80.30;;;;;;4888485;29;20040;-77
2023/12/16 18:05:37;;;;;;;0.20;0.20;;;6.80;80.10;;;;;;4912306;29;20028;-77
2023/12/16 18:08:05;;;;;;;0.20;0.20;;;6.70;80.30;;;;;;4918000;29;20048;-77
2023/12/16 18:10:31;;;;;;;0.10;0.10;;;6.80;80.70;;;;;;4918329;29;20032;-77
2023/12/16 18:12:57;;;;;;;0.10;0.10;;;6.80;80.70;;;;;;4904201;29;20021;-77
2023/12/16 18:15:22;;;;;;;0.10;0.10;;;6.70;80.40;;;;;;4912566;29;20056;-78
2023/12/16 18:17:49;;;;;;;0.10;0.10;;;6.70;80.40;;;;;;4909948;29;20107;-78
2023/12/16 18:20:14;;;;;;;0.15;0.15;;;6.70;80.20;;;;;;4890533;29;20039;-83
2023/12/16 18:22:40;;;;;;;0.20;0.20;;;6.70;80.50;;;;;;4913607;29;20025;-76
2023/12/16 18:25:07;;;;;;;0.10;0.10;;;6.70;80.50;;;;;;4903023;29;20149;-78